sensor_id;sensor_type;location;lat;lon;timestamp;pressure;altitude;pressure_sealevel;temperature;humidity
79236;BME280;69062;47.460;18.812;2024-02-28T00:01:24;100151.50;;;9.99;80.44
79236;BME280;69062;47.460;18.812;2024-02-28T00:03:29;100162.28;;;9.94;80.12
79236;BME280;69062;47.460;18.812;2024-02-28T00:05:36;100163.97;;;9.95;79.81
79236;BME280;69062;47.460;18.812;2024-02-28T00:07:40;100165.78;;;9.95;80.00
79236;BME280;69062;47.460;18.812;2024-02-28T00:09:43;100163.41;;;9.89;80.88
79236;BME280;69062;47.460;18.812;2024-02-28T00:11:46;100158.88;;;9.92;80.83
79236;BME280;69062;47.460;18.812;2024-02-28T00:13:49;100164.41;;;9.86;80.09
79236;BME280;69062;47.460;18.812;2024-02-28T00:15:55;100158.13;;;9.89;79.93
79236;BME280;69062;47.460;18.812;2024-02-28T00:17:58;100157.78;;;9.97;80.44
79236;BME280;69062;47.460;18.812;2024-02-28T00:20:00;100157.09;;;9.93;80.32
79236;BME280;69062;47.460;18.812;2024-02-28T00:22:03;100151.00;;;9.91;80.43
79236;BME280;69062;47.460;18.812;2024-02-28T00:24:07;100148.16;;;9.95;80.08
79236;BME280;69062;47.460;18.812;2024-02-28T00:26:11;100150.38;;;9.86;80.33
79236;BME280;69062;47.460;18.812;2024-02-28T00:28:14;100149.38;;;9.88;81.33
79236;BME280;69062;47.460;18.812;2024-02-28T00:30:17;100150.50;;;9.83;80.75
79236;BME280;69062;47.460;18.812;2024-02-28T00:32:21;100153.13;;;9.83;80.51
79236;BME280;69062;47.460;18.812;2024-02-28T00:34:23;100149.53;;;9.85;80.54
79236;BME280;69062;47.460;18.812;2024-02-28T00:36:26;100146.00;;;9.85;80.51
79236;BME280;69062;47.460;18.812;2024-02-28T00:38:38;100144.44;;;9.81;81.69
79236;BME280;69062;47.460;18.812;2024-02-28T00:40:40;100148.88;;;9.80;81.52
79236;BME280;69062;47.460;18.812;2024-02-28T00:42:43;100152.28;;;9.82;80.57
79236;BME280;69062;47.460;18.812;2024-02-28T00:44:46;100152.38;;;9.81;81.05
79236;BME280;69062;47.460;18.812;2024-02-28T00:46:49;100154.06;;;9.82;80.56
79236;BME280;69062;47.460;18.812;2024-02-28T00:48:51;100154.22;;;9.79;81.69
79236;BME280;69062;47.460;18.812;2024-02-28T00:50:54;100150.50;;;9.83;80.82
79236;BME280;69062;47.460;18.812;2024-02-28T00:52:57;100154.06;;;9.82;80.90
79236;BME280;69062;47.460;18.812;2024-02-28T00:55:01;100159.34;;;9.82;81.13
79236;BME280;69062;47.460;18.812;2024-02-28T00:57:03;100164.03;;;9.75;80.59
79236;BME280;69062;47.460;18.812;2024-02-28T00:59:06;100165.84;;;9.75;81.53
79236;BME280;69062;47.460;18.812;2024-02-28T01:01:14;100166.91;;;9.71;81.70
79236;BME280;69062;47.460;18.812;2024-02-28T01:03:17;100170.19;;;9.76;81.25
79236;BME280;69062;47.460;18.812;2024-02-28T01:05:21;100176.47;;;9.73;81.83
79236;BME280;69062;47.460;18.812;2024-02-28T01:07:23;100171.88;;;9.77;81.37
79236;BME280;69062;47.460;18.812;2024-02-28T01:09:26;100176.03;;;9.82;81.18
79236;BME280;69062;47.460;18.812;2024-02-28T01:11:30;100170.06;;;9.79;80.63
79236;BME280;69062;47.460;18.812;2024-02-28T01:13:33;100164.69;;;9.80;80.72
79236;BME280;69062;47.460;18.812;2024-02-28T01:15:35;100167.53;;;9.76;81.17
79236;BME280;69062;47.460;18.812;2024-02-28T01:17:38;100163.78;;;9.81;79.96
79236;BME280;69062;47.460;18.812;2024-02-28T01:19:41;100165.47;;;9.82;80.31
79236;BME280;69062;47.460;18.812;2024-02-28T01:21:44;100162.34;;;9.74;80.92
79236;BME280;69062;47.460;18.812;2024-02-28T01:23:47;100162.34;;;9.74;80.63
79236;BME280;69062;47.460;18.812;2024-02-28T01:25:50;100164.97;;;9.74;80.84
79236;BME280;69062;47.460;18.812;2024-02-28T01:27:52;100165.91;;;9.73;82.89
79236;BME280;69062;47.460;18.812;2024-02-28T01:29:55;100164.31;;;9.69;82.75
79236;BME280;69062;47.460;18.812;2024-02-28T01:31:58;100162.53;;;9.70;83.59
79236;BME280;69062;47.460;18.812;2024-02-28T01:34:01;100161.56;;;9.72;83.33
79236;BME280;69062;47.460;18.812;2024-02-28T01:36:06;100159.91;;;9.70;83.49
79236;BME280;69062;47.460;18.812;2024-02-28T01:38:09;100161.75;;;9.67;82.56
79236;BME280;69062;47.460;18.812;2024-02-28T01:40:12;100162.03;;;9.61;82.86
79236;BME280;69062;47.460;18.812;2024-02-28T01:42:15;100165.59;;;9.60;82.81
79236;BME280;69062;47.460;18.812;2024-02-28T01:44:18;100164.75;;;9.60;83.90
79236;BME280;69062;47.460;18.812;2024-02-28T01:46:26;100159.63;;;9.57;83.52
79236;BME280;69062;47.460;18.812;2024-02-28T01:48:29;100155.06;;;9.60;83.36
79236;BME280;69062;47.460;18.812;2024-02-28T01:50:32;100160.41;;;9.59;83.91
79236;BME280;69062;47.460;18.812;2024-02-28T01:52:37;100158.47;;;9.62;82.82
79236;BME280;69062;47.460;18.812;2024-02-28T01:54:41;100169.16;;;9.59;84.02
79236;BME280;69062;47.460;18.812;2024-02-28T01:56:44;100170.94;;;9.59;84.03
79236;BME280;69062;47.460;18.812;2024-02-28T01:58:49;100170.56;;;9.48;83.78
79236;BME280;69062;47.460;18.812;2024-02-28T02:00:53;100175.84;;;9.48;82.62
79236;BME280;69062;47.460;18.812;2024-02-28T02:02:56;100181.44;;;9.40;82.68
79236;BME280;69062;47.460;18.812;2024-02-28T02:04:59;100183.75;;;9.48;81.60
79236;BME280;69062;47.460;18.812;2024-02-28T02:07:02;100181.13;;;9.48;81.40
79236;BME280;69062;47.460;18.812;2024-02-28T02:09:05;100185.03;;;9.39;81.79
79236;BME280;69062;47.460;18.812;2024-02-28T02:11:07;100183.06;;;9.63;79.67
79236;BME280;69062;47.460;18.812;2024-02-28T02:13:10;100180.00;;;9.91;77.67
79236;BME280;69062;47.460;18.812;2024-02-28T02:15:13;100186.78;;;9.97;77.15
79236;BME280;69062;47.460;18.812;2024-02-28T02:17:16;100180.50;;;9.99;78.57
79236;BME280;69062;47.460;18.812;2024-02-28T02:19:19;100186.59;;;10.01;77.18
79236;BME280;69062;47.460;18.812;2024-02-28T02:21:24;100186.81;;;10.15;76.07
79236;BME280;69062;47.460;18.812;2024-02-28T02:23:30;100181.19;;;10.23;75.67
79236;BME280;69062;47.460;18.812;2024-02-28T02:25:32;100185.63;;;10.23;76.73
79236;BME280;69062;47.460;18.812;2024-02-28T02:27:35;100185.63;;;10.23;77.35
79236;BME280;69062;47.460;18.812;2024-02-28T02:29:40;100181.28;;;10.20;77.64
79236;BME280;69062;47.460;18.812;2024-02-28T02:31:43;100185.88;;;10.16;77.63
79236;BME280;69062;47.460;18.812;2024-02-28T02:33:47;100180.94;;;10.28;76.81
79236;BME280;69062;47.460;18.812;2024-02-28T02:35:52;100178.88;;;10.34;75.83
79236;BME280;69062;47.460;18.812;2024-02-28T02:37:55;100186.03;;;10.32;77.21
79236;BME280;69062;47.460;18.812;2024-02-28T02:39:59;100190.38;;;10.33;76.27
79236;BME280;69062;47.460;18.812;2024-02-28T02:42:02;100186.19;;;10.29;76.38
79236;BME280;69062;47.460;18.812;2024-02-28T02:44:05;100188.56;;;10.34;76.51
79236;BME280;69062;47.460;18.812;2024-02-28T02:46:07;100185.16;;;10.32;76.47
79236;BME280;69062;47.460;18.812;2024-02-28T02:48:10;100182.25;;;10.38;75.96
79236;BME280;69062;47.460;18.812;2024-02-28T02:50:13;100181.13;;;10.42;75.72
79236;BME280;69062;47.460;18.812;2024-02-28T02:52:16;100189.00;;;10.43;76.17
79236;BME280;69062;47.460;18.812;2024-02-28T02:54:19;100189.00;;;10.43;76.01
79236;BME280;69062;47.460;18.812;2024-02-28T02:56:22;100199.34;;;10.48;74.97
79236;BME280;69062;47.460;18.812;2024-02-28T02:58:24;100202.81;;;10.48;74.72
79236;BME280;69062;47.460;18.812;2024-02-28T03:00:28;100198.03;;;10.57;74.45
79236;BME280;69062;47.460;18.812;2024-02-28T03:02:31;100204.16;;;10.57;74.04
79236;BME280;69062;47.460;18.812;2024-02-28T03:04:34;100199.75;;;10.58;74.86
79236;BME280;69062;47.460;18.812;2024-02-28T03:06:36;100202.41;;;10.39;77.08
79236;BME280;69062;47.460;18.812;2024-02-28T03:08:39;100214.78;;;10.38;76.12
79236;BME280;69062;47.460;18.812;2024-02-28T03:10:43;100208.75;;;10.35;75.52
79236;BME280;69062;47.460;18.812;2024-02-28T03:12:46;100208.75;;;10.35;75.81
79236;BME280;69062;47.460;18.812;2024-02-28T03:14:48;100208.84;;;10.33;76.11
79236;BME280;69062;47.460;18.812;2024-02-28T03:16:51;100213.19;;;10.34;77.46
79236;BME280;69062;47.460;18.812;2024-02-28T03:18:54;100210.72;;;10.31;77.21
79236;BME280;69062;47.460;18.812;2024-02-28T03:20:57;100211.72;;;10.29;77.80
79236;BME280;69062;47.460;18.812;2024-02-28T03:23:00;100214.97;;;10.15;77.82
79236;BME280;69062;47.460;18.812;2024-02-28T03:25:03;100220.78;;;10.23;76.08
79236;BME280;69062;47.460;18.812;2024-02-28T03:27:05;100213.72;;;10.24;75.64
79236;BME280;69062;47.460;18.812;2024-02-28T03:29:08;100213.03;;;10.18;77.76
79236;BME280;69062;47.460;18.812;2024-02-28T03:31:12;100219.09;;;10.20;76.36
79236;BME280;69062;47.460;18.812;2024-02-28T03:33:15;100213.97;;;10.17;76.43
79236;BME280;69062;47.460;18.812;2024-02-28T03:35:18;100222.19;;;10.30;75.20
79236;BME280;69062;47.460;18.812;2024-02-28T03:37:21;100218.84;;;10.27;76.46
79236;BME280;69062;47.460;18.812;2024-02-28T03:39:24;100224.44;;;10.19;77.34
79236;BME280;69062;47.460;18.812;2024-02-28T03:41:27;100229.59;;;10.22;76.97
79236;BME280;69062;47.460;18.812;2024-02-28T03:43:29;100225.03;;;10.26;76.48
79236;BME280;69062;47.460;18.812;2024-02-28T03:45:37;100229.97;;;10.14;77.75
79236;BME280;69062;47.460;18.812;2024-02-28T03:47:41;100230.94;;;10.12;78.85
79236;BME280;69062;47.460;18.812;2024-02-28T03:49:44;100224.31;;;10.03;78.39
79236;BME280;69062;47.460;18.812;2024-02-28T03:51:46;100233.06;;;10.04;77.55
79236;BME280;69062;47.460;18.812;2024-02-28T03:53:49;100231.53;;;10.00;78.12
79236;BME280;69062;47.460;18.812;2024-02-28T03:55:52;100229.78;;;9.99;77.96
79236;BME280;69062;47.460;18.812;2024-02-28T03:57:55;100229.00;;;9.97;78.74
79236;BME280;69062;47.460;18.812;2024-02-28T03:59:58;100229.16;;;9.93;77.56
79236;BME280;69062;47.460;18.812;2024-02-28T04:02:13;100232.66;;;9.94;78.83
79236;BME280;69062;47.460;18.812;2024-02-28T04:04:16;100235.41;;;9.91;80.07
79236;BME280;69062;47.460;18.812;2024-02-28T04:06:18;100232.94;;;9.88;79.85
79236;BME280;69062;47.460;18.812;2024-02-28T04:08:21;100236.50;;;9.87;79.27
79236;BME280;69062;47.460;18.812;2024-02-28T04:10:24;100234.28;;;9.78;79.32
79236;BME280;69062;47.460;18.812;2024-02-28T04:12:27;100235.84;;;9.82;79.24
79236;BME280;69062;47.460;18.812;2024-02-28T04:14:30;100236.84;;;9.79;79.49
79236;BME280;69062;47.460;18.812;2024-02-28T04:16:32;100238.66;;;9.77;79.34
79236;BME280;69062;47.460;18.812;2024-02-28T04:18:35;100237.91;;;9.75;79.44
79236;BME280;69062;47.460;18.812;2024-02-28T04:20:38;100239.81;;;9.72;78.82
79236;BME280;69062;47.460;18.812;2024-02-28T04:22:41;100241.47;;;9.74;79.43
79236;BME280;69062;47.460;18.812;2024-02-28T04:24:43;100242.56;;;9.89;76.23
79236;BME280;69062;47.460;18.812;2024-02-28T04:26:46;100239.63;;;9.95;76.20
79236;BME280;69062;47.460;18.812;2024-02-28T04:28:49;100252.25;;;9.88;77.79
79236;BME280;69062;47.460;18.812;2024-02-28T04:30:52;100238.63;;;9.98;74.68
79236;BME280;69062;47.460;18.812;2024-02-28T04:32:55;100240.50;;;9.95;76.50
79236;BME280;69062;47.460;18.812;2024-02-28T04:34:57;100241.84;;;10.04;73.81
79236;BME280;69062;47.460;18.812;2024-02-28T04:37:00;100243.81;;;9.99;76.86
79236;BME280;69062;47.460;18.812;2024-02-28T04:39:03;100243.78;;;10.01;75.63
79236;BME280;69062;47.460;18.812;2024-02-28T04:41:08;100250.53;;;10.06;75.99
79236;BME280;69062;47.460;18.812;2024-02-28T04:43:11;100242.34;;;9.93;76.27
79236;BME280;69062;47.460;18.812;2024-02-28T04:45:14;100247.03;;;10.06;73.70
79236;BME280;69062;47.460;18.812;2024-02-28T04:47:17;100249.28;;;10.15;72.67
79236;BME280;69062;47.460;18.812;2024-02-28T04:49:23;100250.72;;;10.22;73.08
79236;BME280;69062;47.460;18.812;2024-02-28T04:51:26;100241.22;;;10.18;74.20
79236;BME280;69062;47.460;18.812;2024-02-28T04:53:28;100251.78;;;10.18;74.65
79236;BME280;69062;47.460;18.812;2024-02-28T04:55:31;100253.34;;;10.22;75.44
79236;BME280;69062;47.460;18.812;2024-02-28T04:57:34;100258.25;;;10.11;75.60
79236;BME280;69062;47.460;18.812;2024-02-28T04:59:37;100267.25;;;10.07;75.91
79236;BME280;69062;47.460;18.812;2024-02-28T05:01:40;100259.63;;;10.01;76.70
79236;BME280;69062;47.460;18.812;2024-02-28T05:03:46;100269.16;;;10.03;76.62
79236;BME280;69062;47.460;18.812;2024-02-28T05:05:49;100266.72;;;9.99;76.31
79236;BME280;69062;47.460;18.812;2024-02-28T05:07:52;100274.28;;;9.87;77.78
79236;BME280;69062;47.460;18.812;2024-02-28T05:09:54;100274.28;;;9.87;78.18
79236;BME280;69062;47.460;18.812;2024-02-28T05:11:57;100275.41;;;9.82;77.96
79236;BME280;69062;47.460;18.812;2024-02-28T05:14:01;100283.38;;;9.80;77.39
79236;BME280;69062;47.460;18.812;2024-02-28T05:16:11;100286.97;;;9.79;77.04
79236;BME280;69062;47.460;18.812;2024-02-28T05:18:14;100287.53;;;9.86;74.40
79236;BME280;69062;47.460;18.812;2024-02-28T05:20:17;100289.03;;;9.91;74.34
79236;BME280;69062;47.460;18.812;2024-02-28T05:22:20;100287.13;;;9.95;73.36
79236;BME280;69062;47.460;18.812;2024-02-28T05:24:24;100288.63;;;10.01;73.19
79236;BME280;69062;47.460;18.812;2024-02-28T05:26:27;100287.34;;;10.09;72.85
79236;BME280;69062;47.460;18.812;2024-02-28T05:28:31;100290.19;;;10.05;72.76
79236;BME280;69062;47.460;18.812;2024-02-28T05:30:35;100296.97;;;10.10;73.40
79236;BME280;69062;47.460;18.812;2024-02-28T05:32:38;100293.41;;;10.11;72.29
79236;BME280;69062;47.460;18.812;2024-02-28T05:34:42;100301.47;;;10.08;72.93
79236;BME280;69062;47.460;18.812;2024-02-28T05:36:45;100294.06;;;10.16;72.15
79236;BME280;69062;47.460;18.812;2024-02-28T05:38:48;100296.28;;;10.07;72.65
79236;BME280;69062;47.460;18.812;2024-02-28T05:40:50;100292.56;;;10.11;73.25
79236;BME280;69062;47.460;18.812;2024-02-28T05:42:53;100298.91;;;10.07;72.29
79236;BME280;69062;47.460;18.812;2024-02-28T05:44:56;100295.97;;;10.13;71.62
79236;BME280;69062;47.460;18.812;2024-02-28T05:46:59;100295.69;;;10.19;71.52
79236;BME280;69062;47.460;18.812;2024-02-28T05:49:03;100298.88;;;10.27;72.77
79236;BME280;69062;47.460;18.812;2024-02-28T05:51:07;100294.44;;;10.28;72.28
79236;BME280;69062;47.460;18.812;2024-02-28T05:53:10;100299.59;;;10.31;72.39
79236;BME280;69062;47.460;18.812;2024-02-28T05:55:12;100302.38;;;10.28;71.96
79236;BME280;69062;47.460;18.812;2024-02-28T05:57:15;100303.44;;;10.24;73.18
79236;BME280;69062;47.460;18.812;2024-02-28T05:59:18;100298.25;;;10.20;73.11
79236;BME280;69062;47.460;18.812;2024-02-28T06:01:21;100299.97;;;10.23;72.27
79236;BME280;69062;47.460;18.812;2024-02-28T06:03:24;100305.41;;;10.18;72.77
79236;BME280;69062;47.460;18.812;2024-02-28T06:05:27;100306.13;;;10.22;72.64
79236;BME280;69062;47.460;18.812;2024-02-28T06:07:30;100298.34;;;10.19;71.79
79236;BME280;69062;47.460;18.812;2024-02-28T06:09:33;100302.69;;;10.20;71.72
79236;BME280;69062;47.460;18.812;2024-02-28T06:11:36;100306.25;;;10.19;73.10
79236;BME280;69062;47.460;18.812;2024-02-28T06:13:42;100313.25;;;10.20;73.12
79236;BME280;69062;47.460;18.812;2024-02-28T06:15:48;100309.69;;;10.21;73.29
79236;BME280;69062;47.460;18.812;2024-02-28T06:17:50;100319.47;;;10.19;73.40
79236;BME280;69062;47.460;18.812;2024-02-28T06:19:56;100315.78;;;10.23;72.33
79236;BME280;69062;47.460;18.812;2024-02-28T06:21:59;100313.00;;;10.26;72.55
79236;BME280;69062;47.460;18.812;2024-02-28T06:24:16;100319.06;;;10.28;72.89
79236;BME280;69062;47.460;18.812;2024-02-28T06:26:18;100317.03;;;10.14;71.85
79236;BME280;69062;47.460;18.812;2024-02-28T06:28:21;100316.22;;;10.33;71.76
79236;BME280;69062;47.460;18.812;2024-02-28T06:30:24;100320.22;;;10.41;71.67
79236;BME280;69062;47.460;18.812;2024-02-28T06:32:27;100321.22;;;10.39;71.97
79236;BME280;69062;47.460;18.812;2024-02-28T06:34:30;100317.56;;;10.41;72.13
79236;BME280;69062;47.460;18.812;2024-02-28T06:36:33;100320.59;;;10.53;71.71
79236;BME280;69062;47.460;18.812;2024-02-28T06:38:36;100325.88;;;10.53;71.90
79236;BME280;69062;47.460;18.812;2024-02-28T06:40:40;100325.13;;;10.49;72.53
79236;BME280;69062;47.460;18.812;2024-02-28T06:42:44;100329.84;;;10.42;71.72
79236;BME280;69062;47.460;18.812;2024-02-28T06:45:01;100336.06;;;10.60;71.64
79236;BME280;69062;47.460;18.812;2024-02-28T06:47:04;100346.97;;;10.71;72.13
79236;BME280;69062;47.460;18.812;2024-02-28T06:49:07;100348.56;;;10.75;71.75
79236;BME280;69062;47.460;18.812;2024-02-28T06:51:10;100350.19;;;10.97;72.89
79236;BME280;69062;47.460;18.812;2024-02-28T06:53:14;100349.34;;;11.14;71.05
79236;BME280;69062;47.460;18.812;2024-02-28T06:55:19;100350.94;;;11.35;70.53
79236;BME280;69062;47.460;18.812;2024-02-28T06:57:22;100340.88;;;11.60;69.64
79236;BME280;69062;47.460;18.812;2024-02-28T06:59:25;100346.47;;;11.89;67.61
79236;BME280;69062;47.460;18.812;2024-02-28T07:01:28;100341.47;;;12.00;66.51
79236;BME280;69062;47.460;18.812;2024-02-28T07:03:31;100351.97;;;12.19;64.88
79236;BME280;69062;47.460;18.812;2024-02-28T07:05:33;100349.09;;;12.39;63.23
79236;BME280;69062;47.460;18.812;2024-02-28T07:07:38;100355.50;;;12.51;63.05
79236;BME280;69062;47.460;18.812;2024-02-28T07:09:42;100357.25;;;12.84;62.47
79236;BME280;69062;47.460;18.812;2024-02-28T07:11:45;100360.75;;;13.32;61.22
79236;BME280;69062;47.460;18.812;2024-02-28T07:13:48;100357.28;;;13.75;61.74
79236;BME280;69062;47.460;18.812;2024-02-28T07:16:03;100354.31;;;14.10;61.68
79236;BME280;69062;47.460;18.812;2024-02-28T07:18:09;100361.34;;;14.40;60.64
79236;BME280;69062;47.460;18.812;2024-02-28T07:20:13;100364.97;;;14.67;57.59
79236;BME280;69062;47.460;18.812;2024-02-28T07:22:17;100361.44;;;14.38;56.13
79236;BME280;69062;47.460;18.812;2024-02-28T07:24:21;100360.97;;;14.74;55.87
79236;BME280;69062;47.460;18.812;2024-02-28T07:26:23;100366.03;;;15.06;54.90
79236;BME280;69062;47.460;18.812;2024-02-28T07:28:40;100360.16;;;15.01;56.28
79236;BME280;69062;47.460;18.812;2024-02-28T07:30:58;100381.09;;;14.93;55.39
79236;BME280;69062;47.460;18.812;2024-02-28T07:33:01;100369.31;;;15.24;54.58
79236;BME280;69062;47.460;18.812;2024-02-28T07:35:04;100378.59;;;15.58;54.05
79236;BME280;69062;47.460;18.812;2024-02-28T07:37:07;100373.16;;;15.86;53.01
79236;BME280;69062;47.460;18.812;2024-02-28T07:39:09;100380.28;;;15.59;52.05
79236;BME280;69062;47.460;18.812;2024-02-28T07:41:15;100378.88;;;15.80;51.90
79236;BME280;69062;47.460;18.812;2024-02-28T07:43:18;100385.22;;;16.17;51.60
79236;BME280;69062;47.460;18.812;2024-02-28T07:45:21;100393.31;;;16.41;50.80
79236;BME280;69062;47.460;18.812;2024-02-28T07:47:24;100383.25;;;16.58;50.55
79236;BME280;69062;47.460;18.812;2024-02-28T07:49:26;100387.59;;;16.97;50.42
79236;BME280;69062;47.460;18.812;2024-02-28T07:51:30;100384.94;;;17.45;49.00
79236;BME280;69062;47.460;18.812;2024-02-28T07:53:33;100391.78;;;17.73;48.75
79236;BME280;69062;47.460;18.812;2024-02-28T07:55:36;100391.44;;;17.53;47.75
79236;BME280;69062;47.460;18.812;2024-02-28T07:57:39;100393.75;;;16.73;49.60
79236;BME280;69062;47.460;18.812;2024-02-28T07:59:42;100395.19;;;16.90;49.63
79236;BME280;69062;47.460;18.812;2024-02-28T08:01:45;100396.22;;;17.61;49.09
79236;BME280;69062;47.460;18.812;2024-02-28T08:03:48;100399.06;;;18.06;47.24
79236;BME280;69062;47.460;18.812;2024-02-28T08:05:51;100403.19;;;17.51;48.10
79236;BME280;69062;47.460;18.812;2024-02-28T08:07:54;100401.91;;;17.32;47.45
79236;BME280;69062;47.460;18.812;2024-02-28T08:09:57;100398.78;;;17.39;47.76
79236;BME280;69062;47.460;18.812;2024-02-28T08:11:59;100400.75;;;17.72;47.88
79236;BME280;69062;47.460;18.812;2024-02-28T08:14:02;100406.16;;;17.83;48.13
79236;BME280;69062;47.460;18.812;2024-02-28T08:16:06;100411.97;;;17.77;47.15
79236;BME280;69062;47.460;18.812;2024-02-28T08:18:11;100412.50;;;17.69;47.31
79236;BME280;69062;47.460;18.812;2024-02-28T08:20:14;100404.47;;;17.93;46.87
79236;BME280;69062;47.460;18.812;2024-02-28T08:22:17;100418.50;;;17.73;47.22
79236;BME280;69062;47.460;18.812;2024-02-28T08:24:20;100407.41;;;17.18;48.73
79236;BME280;69062;47.460;18.812;2024-02-28T08:26:23;100413.09;;;17.01;48.94
79236;BME280;69062;47.460;18.812;2024-02-28T08:28:26;100415.56;;;16.66;49.23
79236;BME280;69062;47.460;18.812;2024-02-28T08:30:29;100418.03;;;16.69;49.42
79236;BME280;69062;47.460;18.812;2024-02-28T08:32:32;100418.91;;;17.19;48.79
79236;BME280;69062;47.460;18.812;2024-02-28T08:34:38;100417.72;;;17.95;46.64
79236;BME280;69062;47.460;18.812;2024-02-28T08:36:41;100418.34;;;17.98;47.85
79236;BME280;69062;47.460;18.812;2024-02-28T08:38:43;100411.25;;;18.32;46.24
79236;BME280;69062;47.460;18.812;2024-02-28T08:40:47;100412.66;;;18.71;45.17
79236;BME280;69062;47.460;18.812;2024-02-28T08:42:49;100403.31;;;18.77;44.28
79236;BME280;69062;47.460;18.812;2024-02-28T08:44:56;100408.00;;;18.40;44.97
79236;BME280;69062;47.460;18.812;2024-02-28T08:46:58;100415.50;;;19.36;44.56
79236;BME280;69062;47.460;18.812;2024-02-28T08:49:01;100409.44;;;19.22;43.07
79236;BME280;69062;47.460;18.812;2024-02-28T08:51:04;100412.91;;;18.91;43.18
79236;BME280;69062;47.460;18.812;2024-02-28T08:53:07;100416.31;;;19.47;43.08
79236;BME280;69062;47.460;18.812;2024-02-28T08:55:10;100412.66;;;19.05;42.74
79236;BME280;69062;47.460;18.812;2024-02-28T08:57:13;100419.06;;;19.02;43.67
79236;BME280;69062;47.460;18.812;2024-02-28T08:59:16;100410.56;;;19.52;42.73
79236;BME280;69062;47.460;18.812;2024-02-28T09:01:20;100419.44;;;19.20;42.30
79236;BME280;69062;47.460;18.812;2024-02-28T09:03:41;100410.34;;;18.67;43.75
79236;BME280;69062;47.460;18.812;2024-02-28T09:05:44;100412.38;;;19.08;43.13
79236;BME280;69062;47.460;18.812;2024-02-28T09:07:47;100417.16;;;18.71;43.59
79236;BME280;69062;47.460;18.812;2024-02-28T09:10:06;100419.78;;;18.37;45.30
79236;BME280;69062;47.460;18.812;2024-02-28T09:12:16;100410.72;;;18.16;45.00
79236;BME280;69062;47.460;18.812;2024-02-28T09:14:28;100418.38;;;17.74;46.34
79236;BME280;69062;47.460;18.812;2024-02-28T09:16:34;100418.16;;;17.53;47.00
79236;BME280;69062;47.460;18.812;2024-02-28T09:18:37;100417.78;;;17.34;47.90
79236;BME280;69062;47.460;18.812;2024-02-28T09:20:40;100414.31;;;17.21;47.81
79236;BME280;69062;47.460;18.812;2024-02-28T09:22:43;100418.25;;;17.28;47.76
79236;BME280;69062;47.460;18.812;2024-02-28T09:24:46;100411.91;;;17.89;46.41
79236;BME280;69062;47.460;18.812;2024-02-28T09:26:50;100419.38;;;18.31;44.70
79236;BME280;69062;47.460;18.812;2024-02-28T09:28:53;100419.59;;;18.16;44.96
79236;BME280;69062;47.460;18.812;2024-02-28T09:30:55;100419.84;;;18.25;44.86
79236;BME280;69062;47.460;18.812;2024-02-28T09:32:59;100416.84;;;18.29;43.79
79236;BME280;69062;47.460;18.812;2024-02-28T09:35:03;100414.28;;;18.28;44.04
79236;BME280;69062;47.460;18.812;2024-02-28T09:37:07;100413.59;;;18.59;43.59
79236;BME280;69062;47.460;18.812;2024-02-28T09:39:10;100413.38;;;19.07;43.38
79236;BME280;69062;47.460;18.812;2024-02-28T09:41:23;100412.69;;;19.26;42.75
79236;BME280;69062;47.460;18.812;2024-02-28T09:43:30;100416.66;;;18.88;42.31
79236;BME280;69062;47.460;18.812;2024-02-28T09:45:34;100412.75;;;18.48;43.53
79236;BME280;69062;47.460;18.812;2024-02-28T09:47:37;100420.56;;;18.73;43.30
79236;BME280;69062;47.460;18.812;2024-02-28T09:49:45;100423.88;;;19.42;42.99
79236;BME280;69062;47.460;18.812;2024-02-28T09:51:52;100427.06;;;19.36;41.97
79236;BME280;69062;47.460;18.812;2024-02-28T09:53:57;100423.03;;;19.42;42.67
79236;BME280;69062;47.460;18.812;2024-02-28T09:56:06;100425.63;;;19.75;41.62
79236;BME280;69062;47.460;18.812;2024-02-28T09:58:10;100423.19;;;19.18;42.48
79236;BME280;69062;47.460;18.812;2024-02-28T10:00:14;100426.38;;;19.55;42.34
79236;BME280;69062;47.460;18.812;2024-02-28T10:02:19;100432.06;;;20.05;41.40
79236;BME280;69062;47.460;18.812;2024-02-28T10:04:26;100422.25;;;20.15;41.52
79236;BME280;69062;47.460;18.812;2024-02-28T10:06:30;100427.94;;;19.69;41.34
79236;BME280;69062;47.460;18.812;2024-02-28T10:08:33;100431.88;;;19.53;41.53
79236;BME280;69062;47.460;18.812;2024-02-28T10:10:51;100432.81;;;19.09;42.85
79236;BME280;69062;47.460;18.812;2024-02-28T10:12:57;100435.28;;;19.12;42.72
79236;BME280;69062;47.460;18.812;2024-02-28T10:15:01;100439.06;;;19.53;43.08
79236;BME280;69062;47.460;18.812;2024-02-28T10:17:05;100440.81;;;18.53;43.60
79236;BME280;69062;47.460;18.812;2024-02-28T10:19:08;100440.63;;;18.90;44.19
79236;BME280;69062;47.460;18.812;2024-02-28T10:21:11;100441.97;;;19.07;43.27
79236;BME280;69062;47.460;18.812;2024-02-28T10:23:21;100448.34;;;19.38;42.84
79236;BME280;69062;47.460;18.812;2024-02-28T10:25:24;100450.81;;;19.18;43.21
79236;BME280;69062;47.460;18.812;2024-02-28T10:27:34;100445.75;;;18.70;43.37
79236;BME280;69062;47.460;18.812;2024-02-28T10:29:37;100447.56;;;18.81;43.69
79236;BME280;69062;47.460;18.812;2024-02-28T10:31:42;100453.34;;;18.53;45.39
79236;BME280;69062;47.460;18.812;2024-02-28T10:33:45;100448.22;;;18.38;45.01
79236;BME280;69062;47.460;18.812;2024-02-28T10:35:50;100458.69;;;18.41;45.39
79236;BME280;69062;47.460;18.812;2024-02-28T10:37:56;100445.72;;;19.04;44.50
79236;BME280;69062;47.460;18.812;2024-02-28T10:40:00;100442.84;;;18.85;44.71
79236;BME280;69062;47.460;18.812;2024-02-28T10:42:04;100452.16;;;18.68;44.92